sensor_id;sensor_type;location;lat;lon;timestamp;P1;durP1;ratioP1;P2;durP2;ratioP2
55776;SDS011;54079;44.540;18.784;2022-11-20T00:00:54;5.22;;;3.92;;
55776;SDS011;54079;44.540;18.784;2022-11-20T00:03:20;3.33;;;3.03;;
55776;SDS011;54079;44.540;18.784;2022-11-20T00:05:46;4.90;;;4.40;;
55776;SDS011;54079;44.540;18.784;2022-11-20T00:08:12;5.07;;;4.43;;
55776;SDS011;54079;44.540;18.784;2022-11-20T00:10:39;4.93;;;4.32;;
55776;SDS011;54079;44.540;18.784;2022-11-20T00:13:05;5.80;;;5.00;;
55776;SDS011;54079;44.540;18.784;2022-11-20T00:15:33;5.90;;;5.28;;
55776;SDS011;54079;44.540;18.784;2022-11-20T00:17:59;6.03;;;5.00;;
55776;SDS011;54079;44.540;18.784;2022-11-20T00:20:25;6.35;;;5.75;;
55776;SDS011;54079;44.540;18.784;2022-11-20T00:22:51;6.43;;;5.55;;
55776;SDS011;54079;44.540;18.784;2022-11-20T00:25:17;5.88;;;5.38;;
55776;SDS011;54079;44.540;18.784;2022-11-20T00:27:43;6.20;;;4.38;;
55776;SDS011;54079;44.540;18.784;2022-11-20T00:30:09;5.93;;;5.32;;
55776;SDS011;54079;44.540;18.784;2022-11-20T00:32:35;8.65;;;7.15;;
55776;SDS011;54079;44.540;18.784;2022-11-20T00:35:01;5.47;;;4.90;;
55776;SDS011;54079;44.540;18.784;2022-11-20T00:37:27;7.55;;;5.82;;
55776;SDS011;54079;44.540;18.784;2022-11-20T00:39:53;9.43;;;6.90;;
55776;SDS011;54079;44.540;18.784;2022-11-20T00:42:19;9.45;;;6.57;;
55776;SDS011;54079;44.540;18.784;2022-11-20T00:44:45;7.72;;;6.43;;
55776;SDS011;54079;44.540;18.784;2022-11-20T00:47:11;7.25;;;6.15;;
55776;SDS011;54079;44.540;18.784;2022-11-20T00:49:37;7.32;;;6.07;;
55776;SDS011;54079;44.540;18.784;2022-11-20T00:52:03;8.02;;;7.00;;
55776;SDS011;54079;44.540;18.784;2022-11-20T00:54:29;8.57;;;6.75;;
55776;SDS011;54079;44.540;18.784;2022-11-20T00:56:55;5.68;;;5.13;;
55776;SDS011;54079;44.540;18.784;2022-11-20T00:59:21;5.55;;;4.97;;
55776;SDS011;54079;44.540;18.784;2022-11-20T01:01:47;6.95;;;5.90;;
55776;SDS011;54079;44.540;18.784;2022-11-20T01:04:13;6.40;;;5.53;;
55776;SDS011;54079;44.540;18.784;2022-11-20T01:06:39;4.45;;;4.05;;
55776;SDS011;54079;44.540;18.784;2022-11-20T01:09:06;8.07;;;6.65;;
55776;SDS011;54079;44.540;18.784;2022-11-20T01:11:38;5.45;;;4.70;;
55776;SDS011;54079;44.540;18.784;2022-11-20T01:14:07;8.50;;;6.05;;
55776;SDS011;54079;44.540;18.784;2022-11-20T01:16:40;7.30;;;5.40;;
55776;SDS011;54079;44.540;18.784;2022-11-20T01:19:09;7.07;;;5.47;;
55776;SDS011;54079;44.540;18.784;2022-11-20T01:21:38;5.38;;;4.88;;
55776;SDS011;54079;44.540;18.784;2022-11-20T01:24:07;6.65;;;5.22;;
55776;SDS011;54079;44.540;18.784;2022-11-20T01:26:36;5.30;;;4.50;;
55776;SDS011;54079;44.540;18.784;2022-11-20T01:29:04;5.15;;;4.63;;
55776;SDS011;54079;44.540;18.784;2022-11-20T01:31:32;4.80;;;4.22;;
55776;SDS011;54079;44.540;18.784;2022-11-20T01:34:01;4.10;;;3.70;;
55776;SDS011;54079;44.540;18.784;2022-11-20T01:36:33;4.25;;;3.53;;
55776;SDS011;54079;44.540;18.784;2022-11-20T01:39:02;4.53;;;4.13;;
55776;SDS011;54079;44.540;18.784;2022-11-20T01:41:31;4.57;;;3.80;;
55776;SDS011;54079;44.540;18.784;2022-11-20T01:44:17;4.38;;;3.80;;
55776;SDS011;54079;44.540;18.784;2022-11-20T01:47:06;5.03;;;3.72;;
55776;SDS011;54079;44.540;18.784;2022-11-20T01:49:40;3.17;;;2.78;;
55776;SDS011;54079;44.540;18.784;2022-11-20T01:52:16;3.58;;;2.78;;
55776;SDS011;54079;44.540;18.784;2022-11-20T01:54:49;3.78;;;3.30;;
55776;SDS011;54079;44.540;18.784;2022-11-20T01:57:31;2.40;;;2.20;;
55776;SDS011;54079;44.540;18.784;2022-11-20T02:00:02;3.60;;;2.97;;
55776;SDS011;54079;44.540;18.784;2022-11-20T02:02:32;3.08;;;2.63;;
55776;SDS011;54079;44.540;18.784;2022-11-20T02:05:00;2.75;;;1.85;;
55776;SDS011;54079;44.540;18.784;2022-11-20T02:07:29;3.08;;;2.33;;
55776;SDS011;54079;44.540;18.784;2022-11-20T02:09:56;3.20;;;2.33;;
55776;SDS011;54079;44.540;18.784;2022-11-20T02:12:21;1.50;;;1.40;;
55776;SDS011;54079;44.540;18.784;2022-11-20T02:15:06;2.45;;;2.25;;
55776;SDS011;54079;44.540;18.784;2022-11-20T02:17:32;2.70;;;2.25;;
55776;SDS011;54079;44.540;18.784;2022-11-20T02:19:58;1.92;;;1.83;;
55776;SDS011;54079;44.540;18.784;2022-11-20T02:22:31;2.15;;;1.73;;
55776;SDS011;54079;44.540;18.784;2022-11-20T02:25:02;2.72;;;2.08;;
55776;SDS011;54079;44.540;18.784;2022-11-20T02:27:28;1.55;;;1.30;;
55776;SDS011;54079;44.540;18.784;2022-11-20T02:30:01;2.35;;;1.80;;
55776;SDS011;54079;44.540;18.784;2022-11-20T02:32:33;1.48;;;1.38;;
55776;SDS011;54079;44.540;18.784;2022-11-20T02:37:56;1.50;;;1.40;;
55776;SDS011;54079;44.540;18.784;2022-11-20T02:40:24;1.42;;;1.30;;
55776;SDS011;54079;44.540;18.784;2022-11-20T02:42:54;1.60;;;1.50;;
55776;SDS011;54079;44.540;18.784;2022-11-20T02:45:21;2.25;;;1.98;;
55776;SDS011;54079;44.540;18.784;2022-11-20T02:47:48;1.35;;;1.25;;
55776;SDS011;54079;44.540;18.784;2022-11-20T02:50:14;1.05;;;0.90;;
55776;SDS011;54079;44.540;18.784;2022-11-20T02:52:40;1.10;;;1.00;;
55776;SDS011;54079;44.540;18.784;2022-11-20T02:55:06;2.85;;;1.08;;
55776;SDS011;54079;44.540;18.784;2022-11-20T02:57:32;0.93;;;0.93;;
55776;SDS011;54079;44.540;18.784;2022-11-20T02:59:58;3.03;;;1.00;;
55776;SDS011;54079;44.540;18.784;2022-11-20T03:02:24;0.60;;;0.60;;
55776;SDS011;54079;44.540;18.784;2022-11-20T03:04:50;0.50;;;0.40;;
55776;SDS011;54079;44.540;18.784;2022-11-20T03:07:15;0.98;;;0.40;;
55776;SDS011;54079;44.540;18.784;2022-11-20T03:09:41;0.40;;;0.10;;
55776;SDS011;54079;44.540;18.784;2022-11-20T03:12:07;0.50;;;0.03;;
55776;SDS011;54079;44.540;18.784;2022-11-20T03:14:34;1.27;;;0.08;;
55776;SDS011;54079;44.540;18.784;2022-11-20T03:17:00;0.10;;;0.10;;
55776;SDS011;54079;44.540;18.784;2022-11-20T03:19:26;0.43;;;0.10;;
55776;SDS011;54079;44.540;18.784;2022-11-20T03:21:52;0.30;;;0.00;;
55776;SDS011;54079;44.540;18.784;2022-11-20T03:24:18;0.40;;;0.28;;
55776;SDS011;54079;44.540;18.784;2022-11-20T03:26:44;0.82;;;0.30;;
55776;SDS011;54079;44.540;18.784;2022-11-20T03:29:09;0.43;;;0.10;;
55776;SDS011;54079;44.540;18.784;2022-11-20T03:31:36;0.55;;;0.20;;
55776;SDS011;54079;44.540;18.784;2022-11-20T03:34:07;0.70;;;0.10;;
55776;SDS011;54079;44.540;18.784;2022-11-20T03:36:34;0.50;;;0.50;;
55776;SDS011;54079;44.540;18.784;2022-11-20T03:39:02;0.43;;;0.20;;
55776;SDS011;54079;44.540;18.784;2022-11-20T03:41:28;0.70;;;0.35;;
55776;SDS011;54079;44.540;18.784;2022-11-20T03:44:00;0.50;;;0.40;;
55776;SDS011;54079;44.540;18.784;2022-11-20T03:46:28;0.90;;;0.30;;
55776;SDS011;54079;44.540;18.784;2022-11-20T03:48:54;0.30;;;0.20;;
55776;SDS011;54079;44.540;18.784;2022-11-20T03:51:21;1.95;;;0.40;;
55776;SDS011;54079;44.540;18.784;2022-11-20T03:53:56;2.30;;;0.52;;
55776;SDS011;54079;44.540;18.784;2022-11-20T03:56:24;0.45;;;0.20;;
55776;SDS011;54079;44.540;18.784;2022-11-20T03:58:54;0.47;;;0.22;;
55776;SDS011;54079;44.540;18.784;2022-11-20T04:01:22;0.80;;;0.22;;
55776;SDS011;54079;44.540;18.784;2022-11-20T04:06:37;0.22;;;0.10;;
55776;SDS011;54079;44.540;18.784;2022-11-20T04:09:04;0.63;;;0.30;;
55776;SDS011;54079;44.540;18.784;2022-11-20T04:11:31;0.50;;;0.30;;
55776;SDS011;54079;44.540;18.784;2022-11-20T04:14:02;0.30;;;0.30;;
55776;SDS011;54079;44.540;18.784;2022-11-20T04:16:34;0.65;;;0.57;;
55776;SDS011;54079;44.540;18.784;2022-11-20T04:19:02;0.98;;;0.52;;
55776;SDS011;54079;44.540;18.784;2022-11-20T04:21:29;1.00;;;0.30;;
55776;SDS011;54079;44.540;18.784;2022-11-20T04:23:56;0.60;;;0.40;;
55776;SDS011;54079;44.540;18.784;2022-11-20T04:26:23;1.25;;;0.50;;
55776;SDS011;54079;44.540;18.784;2022-11-20T04:28:50;0.80;;;0.45;;
55776;SDS011;54079;44.540;18.784;2022-11-20T04:31:17;0.40;;;0.38;;
55776;SDS011;54079;44.540;18.784;2022-11-20T04:33:45;1.85;;;0.63;;
55776;SDS011;54079;44.540;18.784;2022-11-20T04:36:12;0.80;;;0.55;;
55776;SDS011;54079;44.540;18.784;2022-11-20T04:38:40;0.70;;;0.57;;
55776;SDS011;54079;44.540;18.784;2022-11-20T04:41:15;1.08;;;0.65;;
55776;SDS011;54079;44.540;18.784;2022-11-20T04:43:46;0.47;;;0.25;;
55776;SDS011;54079;44.540;18.784;2022-11-20T04:46:17;0.50;;;0.47;;
55776;SDS011;54079;44.540;18.784;2022-11-20T04:48:44;2.05;;;0.90;;
55776;SDS011;54079;44.540;18.784;2022-11-20T04:51:10;0.90;;;0.60;;
55776;SDS011;54079;44.540;18.784;2022-11-20T04:53:36;0.50;;;0.45;;
55776;SDS011;54079;44.540;18.784;2022-11-20T04:56:03;0.80;;;0.60;;
55776;SDS011;54079;44.540;18.784;2022-11-20T04:58:30;1.30;;;0.95;;
55776;SDS011;54079;44.540;18.784;2022-11-20T05:01:00;1.15;;;0.65;;
55776;SDS011;54079;44.540;18.784;2022-11-20T05:03:28;1.02;;;0.82;;
55776;SDS011;54079;44.540;18.784;2022-11-20T05:05:54;0.93;;;0.60;;
55776;SDS011;54079;44.540;18.784;2022-11-20T05:08:20;1.42;;;0.90;;
55776;SDS011;54079;44.540;18.784;2022-11-20T05:10:46;1.20;;;1.10;;
55776;SDS011;54079;44.540;18.784;2022-11-20T05:13:12;1.17;;;0.82;;
55776;SDS011;54079;44.540;18.784;2022-11-20T05:15:38;1.02;;;0.70;;
55776;SDS011;54079;44.540;18.784;2022-11-20T05:18:04;2.05;;;1.17;;
55776;SDS011;54079;44.540;18.784;2022-11-20T05:20:30;2.58;;;1.10;;
55776;SDS011;54079;44.540;18.784;2022-11-20T05:22:59;1.40;;;1.25;;
55776;SDS011;54079;44.540;18.784;2022-11-20T05:25:24;1.48;;;1.38;;
55776;SDS011;54079;44.540;18.784;2022-11-20T05:27:50;1.52;;;0.98;;
55776;SDS011;54079;44.540;18.784;2022-11-20T05:30:16;1.35;;;1.10;;
55776;SDS011;54079;44.540;18.784;2022-11-20T05:32:42;1.13;;;0.98;;
55776;SDS011;54079;44.540;18.784;2022-11-20T05:35:08;2.13;;;1.20;;
55776;SDS011;54079;44.540;18.784;2022-11-20T05:37:34;1.33;;;0.98;;
55776;SDS011;54079;44.540;18.784;2022-11-20T05:40:00;1.52;;;1.10;;
55776;SDS011;54079;44.540;18.784;2022-11-20T05:42:26;1.48;;;1.38;;
55776;SDS011;54079;44.540;18.784;2022-11-20T05:44:55;1.67;;;1.17;;
55776;SDS011;54079;44.540;18.784;2022-11-20T05:47:25;2.13;;;1.70;;
55776;SDS011;54079;44.540;18.784;2022-11-20T05:49:52;2.25;;;2.00;;
55776;SDS011;54079;44.540;18.784;2022-11-20T05:52:18;2.35;;;2.15;;
55776;SDS011;54079;44.540;18.784;2022-11-20T05:54:44;3.00;;;2.47;;
55776;SDS011;54079;44.540;18.784;2022-11-20T05:57:10;2.20;;;1.90;;
55776;SDS011;54079;44.540;18.784;2022-11-20T05:59:36;2.60;;;2.05;;
55776;SDS011;54079;44.540;18.784;2022-11-20T06:02:02;2.40;;;2.20;;
55776;SDS011;54079;44.540;18.784;2022-11-20T06:04:28;2.47;;;2.08;;
55776;SDS011;54079;44.540;18.784;2022-11-20T06:06:54;1.75;;;1.55;;
55776;SDS011;54079;44.540;18.784;2022-11-20T06:09:20;2.15;;;1.60;;
55776;SDS011;54079;44.540;18.784;2022-11-20T06:11:45;3.53;;;2.25;;
55776;SDS011;54079;44.540;18.784;2022-11-20T06:14:11;1.77;;;1.40;;
55776;SDS011;54079;44.540;18.784;2022-11-20T06:16:37;2.53;;;1.48;;
55776;SDS011;54079;44.540;18.784;2022-11-20T06:19:03;3.00;;;2.33;;
55776;SDS011;54079;44.540;18.784;2022-11-20T06:21:29;2.42;;;1.92;;
55776;SDS011;54079;44.540;18.784;2022-11-20T06:23:55;1.85;;;1.48;;
55776;SDS011;54079;44.540;18.784;2022-11-20T06:26:22;2.10;;;1.90;;
55776;SDS011;54079;44.540;18.784;2022-11-20T06:28:50;2.30;;;1.90;;
55776;SDS011;54079;44.540;18.784;2022-11-20T06:31:17;1.77;;;1.58;;
55776;SDS011;54079;44.540;18.784;2022-11-20T06:33:45;2.03;;;1.73;;
55776;SDS011;54079;44.540;18.784;2022-11-20T06:36:12;2.65;;;1.98;;
55776;SDS011;54079;44.540;18.784;2022-11-20T06:38:39;3.08;;;2.13;;
55776;SDS011;54079;44.540;18.784;2022-11-20T06:41:06;2.33;;;1.58;;
55776;SDS011;54079;44.540;18.784;2022-11-20T06:43:36;2.42;;;1.73;;
55776;SDS011;54079;44.540;18.784;2022-11-20T06:46:02;1.55;;;1.40;;
55776;SDS011;54079;44.540;18.784;2022-11-20T06:48:29;2.53;;;2.05;;
55776;SDS011;54079;44.540;18.784;2022-11-20T06:50:55;1.95;;;1.67;;
55776;SDS011;54079;44.540;18.784;2022-11-20T06:53:22;1.92;;;1.73;;
55776;SDS011;54079;44.540;18.784;2022-11-20T06:55:49;1.75;;;1.48;;
55776;SDS011;54079;44.540;18.784;2022-11-20T06:58:16;2.90;;;1.80;;
55776;SDS011;54079;44.540;18.784;2022-11-20T07:00:43;3.47;;;1.63;;
55776;SDS011;54079;44.540;18.784;2022-11-20T07:03:10;2.10;;;1.63;;
55776;SDS011;54079;44.540;18.784;2022-11-20T07:05:37;2.83;;;2.05;;
55776;SDS011;54079;44.540;18.784;2022-11-20T07:08:06;4.05;;;1.73;;
55776;SDS011;54079;44.540;18.784;2022-11-20T07:10:32;1.95;;;1.77;;
55776;SDS011;54079;44.540;18.784;2022-11-20T07:12:58;3.28;;;1.52;;
55776;SDS011;54079;44.540;18.784;2022-11-20T07:15:24;2.40;;;1.50;;
55776;SDS011;54079;44.540;18.784;2022-11-20T07:17:51;2.53;;;1.52;;
55776;SDS011;54079;44.540;18.784;2022-11-20T07:20:17;2.53;;;1.75;;
55776;SDS011;54079;44.540;18.784;2022-11-20T07:22:43;2.38;;;1.60;;
55776;SDS011;54079;44.540;18.784;2022-11-20T07:25:10;1.00;;;0.93;;
55776;SDS011;54079;44.540;18.784;2022-11-20T07:27:36;1.95;;;1.48;;
55776;SDS011;54079;44.540;18.784;2022-11-20T07:30:03;2.42;;;1.52;;
55776;SDS011;54079;44.540;18.784;2022-11-20T07:32:29;1.27;;;1.00;;
55776;SDS011;54079;44.540;18.784;2022-11-20T07:34:56;1.48;;;1.02;;
55776;SDS011;54079;44.540;18.784;2022-11-20T07:37:21;1.45;;;0.60;;
55776;SDS011;54079;44.540;18.784;2022-11-20T07:39:47;1.27;;;1.00;;
55776;SDS011;54079;44.540;18.784;2022-11-20T07:42:13;2.05;;;0.85;;
55776;SDS011;54079;44.540;18.784;2022-11-20T07:44:39;1.90;;;0.73;;
55776;SDS011;54079;44.540;18.784;2022-11-20T07:47:05;1.67;;;1.15;;
55776;SDS011;54079;44.540;18.784;2022-11-20T07:49:31;1.42;;;0.93;;
55776;SDS011;54079;44.540;18.784;2022-11-20T07:51:58;2.17;;;1.63;;
55776;SDS011;54079;44.540;18.784;2022-11-20T07:54:24;2.05;;;1.33;;
55776;SDS011;54079;44.540;18.784;2022-11-20T07:56:50;1.50;;;1.00;;
55776;SDS011;54079;44.540;18.784;2022-11-20T07:59:16;2.15;;;1.20;;
55776;SDS011;54079;44.540;18.784;2022-11-20T08:01:42;2.20;;;1.45;;
55776;SDS011;54079;44.540;18.784;2022-11-20T08:04:08;4.03;;;2.30;;
55776;SDS011;54079;44.540;18.784;2022-11-20T08:06:35;5.65;;;1.92;;
55776;SDS011;54079;44.540;18.784;2022-11-20T08:09:01;3.55;;;2.22;;
55776;SDS011;54079;44.540;18.784;2022-11-20T08:11:28;4.18;;;2.60;;
55776;SDS011;54079;44.540;18.784;2022-11-20T08:14:12;3.85;;;2.20;;
55776;SDS011;54079;44.540;18.784;2022-11-20T08:16:48;4.20;;;2.80;;
55776;SDS011;54079;44.540;18.784;2022-11-20T08:19:15;5.97;;;3.88;;
55776;SDS011;54079;44.540;18.784;2022-11-20T08:21:42;3.92;;;2.55;;
55776;SDS011;54079;44.540;18.784;2022-11-20T08:24:09;9.30;;;4.72;;
55776;SDS011;54079;44.540;18.784;2022-11-20T08:26:36;5.15;;;3.45;;
55776;SDS011;54079;44.540;18.784;2022-11-20T08:29:03;5.07;;;3.40;;
55776;SDS011;54079;44.540;18.784;2022-11-20T08:31:30;5.03;;;2.47;;
55776;SDS011;54079;44.540;18.784;2022-11-20T08:33:56;5.53;;;3.85;;
55776;SDS011;54079;44.540;18.784;2022-11-20T08:36:22;2.47;;;2.05;;
55776;SDS011;54079;44.540;18.784;2022-11-20T08:38:52;6.90;;;3.72;;
55776;SDS011;54079;44.540;18.784;2022-11-20T08:41:20;6.77;;;5.23;;
55776;SDS011;54079;44.540;18.784;2022-11-20T08:43:49;2.88;;;2.35;;
55776;SDS011;54079;44.540;18.784;2022-11-20T08:46:16;2.05;;;1.70;;
55776;SDS011;54079;44.540;18.784;2022-11-20T08:48:42;4.93;;;3.58;;
55776;SDS011;54079;44.540;18.784;2022-11-20T08:51:09;3.22;;;2.33;;
55776;SDS011;54079;44.540;18.784;2022-11-20T08:53:35;6.07;;;2.30;;
55776;SDS011;54079;44.540;18.784;2022-11-20T08:56:01;2.92;;;1.92;;
55776;SDS011;54079;44.540;18.784;2022-11-20T08:58:27;3.53;;;2.20;;
55776;SDS011;54079;44.540;18.784;2022-11-20T09:00:53;4.50;;;1.75;;
55776;SDS011;54079;44.540;18.784;2022-11-20T09:03:19;4.93;;;3.00;;
55776;SDS011;54079;44.540;18.784;2022-11-20T09:05:45;5.10;;;3.40;;
55776;SDS011;54079;44.540;18.784;2022-11-20T09:08:11;2.80;;;1.92;;
55776;SDS011;54079;44.540;18.784;2022-11-20T09:10:37;3.17;;;1.98;;
55776;SDS011;54079;44.540;18.784;2022-11-20T09:13:04;2.20;;;1.73;;
55776;SDS011;54079;44.540;18.784;2022-11-20T09:15:30;7.72;;;3.20;;
55776;SDS011;54079;44.540;18.784;2022-11-20T09:18:00;4.10;;;3.40;;
55776;SDS011;54079;44.540;18.784;2022-11-20T09:20:28;8.05;;;5.00;;
55776;SDS011;54079;44.540;18.784;2022-11-20T09:22:55;4.43;;;3.53;;
55776;SDS011;54079;44.540;18.784;2022-11-20T09:25:21;8.02;;;5.13;;
55776;SDS011;54079;44.540;18.784;2022-11-20T09:27:47;2.38;;;2.15;;
55776;SDS011;54079;44.540;18.784;2022-11-20T09:30:13;3.85;;;3.08;;
55776;SDS011;54079;44.540;18.784;2022-11-20T09:32:40;5.00;;;3.60;;
55776;SDS011;54079;44.540;18.784;2022-11-20T09:35:07;3.08;;;2.50;;
55776;SDS011;54079;44.540;18.784;2022-11-20T09:37:33;4.75;;;3.33;;
55776;SDS011;54079;44.540;18.784;2022-11-20T09:40:00;5.88;;;3.08;;
55776;SDS011;54079;44.540;18.784;2022-11-20T09:55:48;2.67;;;2.33;;
55776;SDS011;54079;44.540;18.784;2022-11-20T09:58:22;3.50;;;2.53;;
55776;SDS011;54079;44.540;18.784;2022-11-20T10:01:14;3.85;;;2.30;;
55776;SDS011;54079;44.540;18.784;2022-11-20T10:07:11;2.10;;;1.63;;
55776;SDS011;54079;44.540;18.784;2022-11-20T10:09:43;6.22;;;3.67;;
55776;SDS011;54079;44.540;18.784;2022-11-20T10:12:21;8.63;;;6.38;;
55776;SDS011;54079;44.540;18.784;2022-11-20T10:21:12;2.63;;;1.70;;
55776;SDS011;54079;44.540;18.784;2022-11-20T10:23:54;2.13;;;1.92;;
55776;SDS011;54079;44.540;18.784;2022-11-20T10:29:11;2.05;;;1.85;;
55776;SDS011;54079;44.540;18.784;2022-11-20T10:31:40;5.72;;;3.90;;
55776;SDS011;54079;44.540;18.784;2022-11-20T10:37:27;2.83;;;2.00;;
55776;SDS011;54079;44.540;18.784;2022-11-20T10:42:17;1.98;;;1.63;;
55776;SDS011;54079;44.540;18.784;2022-11-20T10:44:53;3.15;;;2.63;;
55776;SDS011;54079;44.540;18.784;2022-11-20T10:47:28;4.97;;;2.47;;
55776;SDS011;54079;44.540;18.784;2022-11-20T10:49:57;5.78;;;3.17;;
55776;SDS011;54079;44.540;18.784;2022-11-20T10:58:04;4.47;;;3.90;;
55776;SDS011;54079;44.540;18.784;2022-11-20T11:00:45;3.75;;;2.28;;
55776;SDS011;54079;44.540;18.784;2022-11-20T11:03:29;2.38;;;2.17;;
55776;SDS011;54079;44.540;18.784;2022-11-20T11:06:02;3.30;;;3.00;;
55776;SDS011;54079;44.540;18.784;2022-11-20T11:08:37;2.40;;;2.20;;
55776;SDS011;54079;44.540;18.784;2022-11-20T11:11:23;3.42;;;2.50;;
55776;SDS011;54079;44.540;18.784;2022-11-20T11:14:04;5.10;;;4.47;;
55776;SDS011;54079;44.540;18.784;2022-11-20T11:16:30;3.50;;;3.17;;
55776;SDS011;54079;44.540;18.784;2022-11-20T11:19:05;3.85;;;3.42;;
55776;SDS011;54079;44.540;18.784;2022-11-20T11:21:36;3.60;;;3.22;;
55776;SDS011;54079;44.540;18.784;2022-11-20T11:24:14;5.45;;;4.65;;
55776;SDS011;54079;44.540;18.784;2022-11-20T11:27:02;5.82;;;4.78;;
55776;SDS011;54079;44.540;18.784;2022-11-20T11:29:35;4.85;;;4.13;;
55776;SDS011;54079;44.540;18.784;2022-11-20T11:34:43;5.63;;;4.47;;
55776;SDS011;54079;44.540;18.784;2022-11-20T11:37:10;5.75;;;4.90;;
55776;SDS011;54079;44.540;18.784;2022-11-20T11:39:44;6.65;;;4.93;;
55776;SDS011;54079;44.540;18.784;2022-11-20T11:42:13;5.18;;;3.65;;
55776;SDS011;54079;44.540;18.784;2022-11-20T11:44:44;7.28;;;5.13;;
55776;SDS011;54079;44.540;18.784;2022-11-20T11:55:31;4.50;;;3.92;;
55776;SDS011;54079;44.540;18.784;2022-11-20T11:58:20;4.90;;;4.10;;
55776;SDS011;54079;44.540;18.784;2022-11-20T12:03:42;3.78;;;2.92;;
55776;SDS011;54079;44.540;18.784;2022-11-20T12:06:13;3.97;;;3.03;;
55776;SDS011;54079;44.540;18.784;2022-11-20T12:14:04;3.15;;;2.30;;
55776;SDS011;54079;44.540;18.784;2022-11-20T12:16:49;2.70;;;2.13;;
55776;SDS011;54079;44.540;18.784;2022-11-20T12:19:16;4.25;;;2.90;;
55776;SDS011;54079;44.540;18.784;2022-11-20T12:21:48;3.40;;;2.95;;
55776;SDS011;54079;44.540;18.784;2022-11-20T12:35:32;3.22;;;2.55;;
55776;SDS011;54079;44.540;18.784;2022-11-20T12:55:56;2.92;;;1.98;;
55776;SDS011;54079;44.540;18.784;2022-11-20T12:58:50;1.80;;;1.30;;
55776;SDS011;54079;44.540;18.784;2022-11-20T13:06:49;1.10;;;0.85;;
55776;SDS011;54079;44.540;18.784;2022-11-20T13:09:16;0.95;;;0.73;;
55776;SDS011;54079;44.540;18.784;2022-11-20T13:14:28;1.85;;;1.25;;
55776;SDS011;54079;44.540;18.784;2022-11-20T13:17:08;2.45;;;1.80;;
55776;SDS011;54079;44.540;18.784;2022-11-20T13:19:41;2.40;;;1.40;;
55776;SDS011;54079;44.540;18.784;2022-11-20T13:22:23;2.22;;;1.77;;
55776;SDS011;54079;44.540;18.784;2022-11-20T13:24:50;2.50;;;1.77;;
55776;SDS011;54079;44.540;18.784;2022-11-20T13:27:18;1.90;;;1.40;;
55776;SDS011;54079;44.540;18.784;2022-11-20T13:30:31;2.40;;;1.15;;
55776;SDS011;54079;44.540;18.784;2022-11-20T13:35:30;5.10;;;3.60;;
55776;SDS011;54079;44.540;18.784;2022-11-20T13:40:27;1.70;;;1.00;;
55776;SDS011;54079;44.540;18.784;2022-11-20T13:43:00;0.20;;;0.20;;
55776;SDS011;54079;44.540;18.784;2022-11-20T13:45:27;0.52;;;0.40;;
55776;SDS011;54079;44.540;18.784;2022-11-20T13:47:57;0.60;;;0.40;;
55776;SDS011;54079;44.540;18.784;2022-11-20T14:02:15;0.80;;;0.60;;
55776;SDS011;54079;44.540;18.784;2022-11-20T14:04:47;3.95;;;1.98;;
55776;SDS011;54079;44.540;18.784;2022-11-20T14:07:16;2.17;;;1.50;;
55776;SDS011;54079;44.540;18.784;2022-11-20T14:09:51;2.80;;;1.60;;
55776;SDS011;54079;44.540;18.784;2022-11-20T14:12:19;2.75;;;1.58;;
55776;SDS011;54079;44.540;18.784;2022-11-20T14:14:53;2.95;;;1.50;;
55776;SDS011;54079;44.540;18.784;2022-11-20T14:17:21;3.65;;;2.55;;
55776;SDS011;54079;44.540;18.784;2022-11-20T14:19:48;3.08;;;2.38;;
55776;SDS011;54079;44.540;18.784;2022-11-20T14:22:23;1.10;;;1.00;;
55776;SDS011;54079;44.540;18.784;2022-11-20T14:27:32;1.50;;;1.10;;
55776;SDS011;54079;44.540;18.784;2022-11-20T14:30:01;1.30;;;1.10;;
55776;SDS011;54079;44.540;18.784;2022-11-20T14:32:28;1.75;;;0.82;;
55776;SDS011;54079;44.540;18.784;2022-11-20T14:34:55;1.77;;;1.48;;
55776;SDS011;54079;44.540;18.784;2022-11-20T14:37:33;2.30;;;1.67;;
55776;SDS011;54079;44.540;18.784;2022-11-20T14:40:05;2.13;;;1.10;;
55776;SDS011;54079;44.540;18.784;2022-11-20T14:42:48;1.45;;;1.30;;
55776;SDS011;54079;44.540;18.784;2022-11-20T14:45:14;0.93;;;0.75;;
55776;SDS011;54079;44.540;18.784;2022-11-20T14:47:41;1.05;;;0.90;;
55776;SDS011;54079;44.540;18.784;2022-11-20T14:50:12;0.90;;;0.80;;
55776;SDS011;54079;44.540;18.784;2022-11-20T14:52:50;1.33;;;1.05;;
55776;SDS011;54079;44.540;18.784;2022-11-20T14:55:27;1.00;;;0.80;;
55776;SDS011;54079;44.540;18.784;2022-11-20T14:58:02;1.70;;;1.40;;
55776;SDS011;54079;44.540;18.784;2022-11-20T15:00:52;2.47;;;1.35;;
55776;SDS011;54079;44.540;18.784;2022-11-20T15:03:33;1.33;;;0.85;;
55776;SDS011;54079;44.540;18.784;2022-11-20T15:06:02;1.17;;;1.10;;
55776;SDS011;54079;44.540;18.784;2022-11-20T15:08:28;1.23;;;0.80;;
55776;SDS011;54079;44.540;18.784;2022-11-20T15:10:54;1.80;;;1.02;;
55776;SDS011;54079;44.540;18.784;2022-11-20T15:13:24;0.95;;;0.77;;
55776;SDS011;54079;44.540;18.784;2022-11-20T15:16:02;1.20;;;0.90;;
55776;SDS011;54079;44.540;18.784;2022-11-20T15:18:39;1.40;;;0.98;;
55776;SDS011;54079;44.540;18.784;2022-11-20T15:21:16;2.80;;;1.52;;
55776;SDS011;54079;44.540;18.784;2022-11-20T15:23:43;2.13;;;1.55;;
55776;SDS011;54079;44.540;18.784;2022-11-20T15:26:10;1.58;;;1.42;;
55776;SDS011;54079;44.540;18.784;2022-11-20T15:28:41;1.95;;;1.67;;
55776;SDS011;54079;44.540;18.784;2022-11-20T15:31:11;2.75;;;1.88;;
55776;SDS011;54079;44.540;18.784;2022-11-20T15:33:37;3.38;;;2.50;;
55776;SDS011;54079;44.540;18.784;2022-11-20T15:36:03;3.63;;;2.30;;
55776;SDS011;54079;44.540;18.784;2022-11-20T15:38:29;3.10;;;2.40;;
55776;SDS011;54079;44.540;18.784;2022-11-20T15:40:55;3.65;;;2.83;;
55776;SDS011;54079;44.540;18.784;2022-11-20T15:43:21;2.55;;;2.20;;
55776;SDS011;54079;44.540;18.784;2022-11-20T15:45:48;3.15;;;2.42;;
55776;SDS011;54079;44.540;18.784;2022-11-20T15:48:27;2.50;;;2.13;;
55776;SDS011;54079;44.540;18.784;2022-11-20T15:53:38;4.63;;;2.97;;
55776;SDS011;54079;44.540;18.784;2022-11-20T15:56:05;3.38;;;2.45;;
55776;SDS011;54079;44.540;18.784;2022-11-20T15:58:31;4.50;;;3.17;;
55776;SDS011;54079;44.540;18.784;2022-11-20T16:00:57;4.30;;;3.42;;
55776;SDS011;54079;44.540;18.784;2022-11-20T16:03:23;3.67;;;3.30;;
55776;SDS011;54079;44.540;18.784;2022-11-20T16:05:49;4.03;;;3.50;;
55776;SDS011;54079;44.540;18.784;2022-11-20T16:08:15;6.10;;;4.32;;
55776;SDS011;54079;44.540;18.784;2022-11-20T16:10:41;4.90;;;3.85;;
55776;SDS011;54079;44.540;18.784;2022-11-20T16:13:11;4.32;;;3.67;;
55776;SDS011;54079;44.540;18.784;2022-11-20T16:15:57;5.93;;;4.32;;
55776;SDS011;54079;44.540;18.784;2022-11-20T16:18:25;4.95;;;3.45;;
55776;SDS011;54079;44.540;18.784;2022-11-20T16:20:51;5.00;;;4.50;;
55776;SDS011;54079;44.540;18.784;2022-11-20T16:23:19;8.95;;;7.07;;
55776;SDS011;54079;44.540;18.784;2022-11-20T16:25:45;6.95;;;5.50;;
55776;SDS011;54079;44.540;18.784;2022-11-20T16:28:12;6.97;;;5.03;;
55776;SDS011;54079;44.540;18.784;2022-11-20T16:30:39;6.05;;;5.20;;
55776;SDS011;54079;44.540;18.784;2022-11-20T16:33:09;7.47;;;5.80;;
55776;SDS011;54079;44.540;18.784;2022-11-20T16:35:39;6.63;;;5.20;;
55776;SDS011;54079;44.540;18.784;2022-11-20T16:38:05;6.95;;;5.65;;
55776;SDS011;54079;44.540;18.784;2022-11-20T16:40:32;5.05;;;4.35;;
55776;SDS011;54079;44.540;18.784;2022-11-20T16:43:09;8.70;;;7.07;;
55776;SDS011;54079;44.540;18.784;2022-11-20T16:45:39;5.55;;;4.75;;